sensor_id;sensor_type;location;lat;lon;timestamp;temperature;humidity
20698;DHT22;10508;50.956;4.640;2023-03-01T00:02:20;0.20;98.80
20698;DHT22;10508;50.956;4.640;2023-03-01T00:04:46;0.20;99.20
20698;DHT22;10508;50.956;4.640;2023-03-01T00:07:13;0.10;98.80
20698;DHT22;10508;50.956;4.640;2023-03-01T00:09:38;0.20;99.10
20698;DHT22;10508;50.956;4.640;2023-03-01T00:12:06;0.30;98.90
20698;DHT22;10508;50.956;4.640;2023-03-01T00:14:32;0.10;99.10
20698;DHT22;10508;50.956;4.640;2023-03-01T00:16:58;0.20;99.70
20698;DHT22;10508;50.956;4.640;2023-03-01T00:19:23;0.20;99.30
20698;DHT22;10508;50.956;4.640;2023-03-01T00:21:49;0.10;99.40
20698;DHT22;10508;50.956;4.640;2023-03-01T00:24:15;0.10;99.90
20698;DHT22;10508;50.956;4.640;2023-03-01T00:26:41;-0.10;99.90
20698;DHT22;10508;50.956;4.640;2023-03-01T00:29:06;-0.10;99.90
20698;DHT22;10508;50.956;4.640;2023-03-01T00:31:33;0.10;99.90
20698;DHT22;10508;50.956;4.640;2023-03-01T00:34:01;0.10;99.90
20698;DHT22;10508;50.956;4.640;2023-03-01T00:36:33;-0.10;99.90
20698;DHT22;10508;50.956;4.640;2023-03-01T00:38:59;0.10;99.90
20698;DHT22;10508;50.956;4.640;2023-03-01T00:41:25;0.00;99.90
20698;DHT22;10508;50.956;4.640;2023-03-01T00:43:54;-0.20;99.90
20698;DHT22;10508;50.956;4.640;2023-03-01T00:46:22;-0.20;99.90
20698;DHT22;10508;50.956;4.640;2023-03-01T00:48:48;-0.20;99.90
20698;DHT22;10508;50.956;4.640;2023-03-01T00:51:19;-0.20;99.90
20698;DHT22;10508;50.956;4.640;2023-03-01T00:53:47;-0.10;99.90
20698;DHT22;10508;50.956;4.640;2023-03-01T00:56:14;-0.20;99.90
20698;DHT22;10508;50.956;4.640;2023-03-01T00:58:40;-0.20;99.90
20698;DHT22;10508;50.956;4.640;2023-03-01T01:01:17;-0.30;99.90
20698;DHT22;10508;50.956;4.640;2023-03-01T01:03:48;-0.20;99.90
20698;DHT22;10508;50.956;4.640;2023-03-01T01:06:16;-0.20;99.90
20698;DHT22;10508;50.956;4.640;2023-03-01T01:08:41;-0.30;99.90
20698;DHT22;10508;50.956;4.640;2023-03-01T01:11:11;-0.30;99.90
20698;DHT22;10508;50.956;4.640;2023-03-01T01:13:38;-0.20;99.90
20698;DHT22;10508;50.956;4.640;2023-03-01T01:16:04;-0.30;99.90
20698;DHT22;10508;50.956;4.640;2023-03-01T01:18:30;-0.40;99.90
20698;DHT22;10508;50.956;4.640;2023-03-01T01:20:56;-0.30;99.90
20698;DHT22;10508;50.956;4.640;2023-03-01T01:23:21;-0.30;99.90
20698;DHT22;10508;50.956;4.640;2023-03-01T01:25:47;-0.40;99.90
20698;DHT22;10508;50.956;4.640;2023-03-01T01:28:13;-0.40;99.90
20698;DHT22;10508;50.956;4.640;2023-03-01T01:30:38;-0.50;99.90
20698;DHT22;10508;50.956;4.640;2023-03-01T01:33:04;-0.50;99.90
20698;DHT22;10508;50.956;4.640;2023-03-01T01:35:29;-0.50;99.90
20698;DHT22;10508;50.956;4.640;2023-03-01T01:37:55;-0.50;99.90
20698;DHT22;10508;50.956;4.640;2023-03-01T01:40:21;-0.50;99.90
20698;DHT22;10508;50.956;4.640;2023-03-01T01:42:46;-0.50;99.90
20698;DHT22;10508;50.956;4.640;2023-03-01T01:47:55;-0.40;99.90
20698;DHT22;10508;50.956;4.640;2023-03-01T01:50:22;-0.40;99.90
20698;DHT22;10508;50.956;4.640;2023-03-01T01:52:50;-0.50;99.90
20698;DHT22;10508;50.956;4.640;2023-03-01T01:55:21;-0.50;99.90
20698;DHT22;10508;50.956;4.640;2023-03-01T01:57:53;-0.40;99.90
20698;DHT22;10508;50.956;4.640;2023-03-01T02:00:26;-0.40;99.90
20698;DHT22;10508;50.956;4.640;2023-03-01T02:02:57;-0.50;99.90
20698;DHT22;10508;50.956;4.640;2023-03-01T02:08:17;-0.60;99.90
20698;DHT22;10508;50.956;4.640;2023-03-01T02:10:44;-0.70;99.90
20698;DHT22;10508;50.956;4.640;2023-03-01T02:13:10;-0.80;99.90
20698;DHT22;10508;50.956;4.640;2023-03-01T02:15:38;-0.80;99.90
20698;DHT22;10508;50.956;4.640;2023-03-01T02:18:05;-0.80;99.90
20698;DHT22;10508;50.956;4.640;2023-03-01T02:23:49;-0.60;99.90
20698;DHT22;10508;50.956;4.640;2023-03-01T02:26:34;-0.70;99.90
20698;DHT22;10508;50.956;4.640;2023-03-01T02:29:02;-0.60;99.90
20698;DHT22;10508;50.956;4.640;2023-03-01T02:31:28;-0.60;99.90
20698;DHT22;10508;50.956;4.640;2023-03-01T02:34:15;-0.70;99.90
20698;DHT22;10508;50.956;4.640;2023-03-01T02:36:45;-0.70;99.90
20698;DHT22;10508;50.956;4.640;2023-03-01T02:39:18;-0.80;99.90
20698;DHT22;10508;50.956;4.640;2023-03-01T02:41:51;-0.80;99.90
20698;DHT22;10508;50.956;4.640;2023-03-01T02:44:17;-0.70;99.90
20698;DHT22;10508;50.956;4.640;2023-03-01T02:46:56;-0.70;99.90
20698;DHT22;10508;50.956;4.640;2023-03-01T02:49:27;-0.80;99.90
20698;DHT22;10508;50.956;4.640;2023-03-01T02:57:10;-1.10;99.90
20698;DHT22;10508;50.956;4.640;2023-03-01T02:59:38;-1.00;99.90
20698;DHT22;10508;50.956;4.640;2023-03-01T03:02:29;-0.80;99.90
20698;DHT22;10508;50.956;4.640;2023-03-01T03:05:07;-1.00;99.90
20698;DHT22;10508;50.956;4.640;2023-03-01T03:07:38;-1.10;99.90
20698;DHT22;10508;50.956;4.640;2023-03-01T03:10:06;-1.10;99.90
20698;DHT22;10508;50.956;4.640;2023-03-01T03:12:32;-1.10;99.90
20698;DHT22;10508;50.956;4.640;2023-03-01T03:14:58;-1.20;99.90
20698;DHT22;10508;50.956;4.640;2023-03-01T03:17:24;-1.10;99.90
20698;DHT22;10508;50.956;4.640;2023-03-01T03:19:50;-1.20;99.90
20698;DHT22;10508;50.956;4.640;2023-03-01T03:22:15;-1.30;99.90
20698;DHT22;10508;50.956;4.640;2023-03-01T03:24:41;-1.30;99.90
20698;DHT22;10508;50.956;4.640;2023-03-01T03:27:07;-1.20;99.90
20698;DHT22;10508;50.956;4.640;2023-03-01T03:29:33;-1.20;99.90
20698;DHT22;10508;50.956;4.640;2023-03-01T03:31:59;-1.10;99.90
20698;DHT22;10508;50.956;4.640;2023-03-01T03:34:24;-1.10;99.90
20698;DHT22;10508;50.956;4.640;2023-03-01T03:36:56;-1.10;99.90
20698;DHT22;10508;50.956;4.640;2023-03-01T03:39:25;-1.10;99.90
20698;DHT22;10508;50.956;4.640;2023-03-01T03:41:52;-1.10;99.90
20698;DHT22;10508;50.956;4.640;2023-03-01T03:44:18;-1.10;99.90
20698;DHT22;10508;50.956;4.640;2023-03-01T03:46:43;-1.10;99.90
20698;DHT22;10508;50.956;4.640;2023-03-01T03:49:09;-1.10;99.90
20698;DHT22;10508;50.956;4.640;2023-03-01T03:51:34;-0.90;99.90
20698;DHT22;10508;50.956;4.640;2023-03-01T03:54:00;-1.00;99.90
20698;DHT22;10508;50.956;4.640;2023-03-01T03:56:29;-1.10;99.90
20698;DHT22;10508;50.956;4.640;2023-03-01T03:58:55;-1.10;99.90
20698;DHT22;10508;50.956;4.640;2023-03-01T04:01:20;-1.30;99.90
20698;DHT22;10508;50.956;4.640;2023-03-01T04:03:46;-1.40;99.90
20698;DHT22;10508;50.956;4.640;2023-03-01T04:06:13;-1.50;99.90
20698;DHT22;10508;50.956;4.640;2023-03-01T04:08:39;-1.50;99.90
20698;DHT22;10508;50.956;4.640;2023-03-01T04:11:05;-1.60;99.90
20698;DHT22;10508;50.956;4.640;2023-03-01T04:13:51;-1.60;99.90
20698;DHT22;10508;50.956;4.640;2023-03-01T04:16:18;-1.70;99.90
20698;DHT22;10508;50.956;4.640;2023-03-01T04:18:43;-1.70;99.90
20698;DHT22;10508;50.956;4.640;2023-03-01T04:21:09;-1.70;99.90
20698;DHT22;10508;50.956;4.640;2023-03-01T04:23:37;-1.60;99.90
20698;DHT22;10508;50.956;4.640;2023-03-01T04:26:03;-1.60;99.90
20698;DHT22;10508;50.956;4.640;2023-03-01T04:28:33;-1.80;99.90
20698;DHT22;10508;50.956;4.640;2023-03-01T04:31:03;-1.80;99.90
20698;DHT22;10508;50.956;4.640;2023-03-01T04:34:01;-1.70;99.90
20698;DHT22;10508;50.956;4.640;2023-03-01T04:36:28;-1.80;99.90
20698;DHT22;10508;50.956;4.640;2023-03-01T04:38:55;-1.80;99.90
20698;DHT22;10508;50.956;4.640;2023-03-01T04:41:22;-1.90;99.90
20698;DHT22;10508;50.956;4.640;2023-03-01T04:43:48;-1.70;99.90
20698;DHT22;10508;50.956;4.640;2023-03-01T04:46:25;-1.80;99.90
20698;DHT22;10508;50.956;4.640;2023-03-01T04:48:51;-1.80;99.90
20698;DHT22;10508;50.956;4.640;2023-03-01T04:51:17;-1.80;99.90
20698;DHT22;10508;50.956;4.640;2023-03-01T04:53:44;-1.70;99.90
20698;DHT22;10508;50.956;4.640;2023-03-01T04:56:09;-1.80;99.90
20698;DHT22;10508;50.956;4.640;2023-03-01T04:58:54;-1.80;99.90
20698;DHT22;10508;50.956;4.640;2023-03-01T05:01:20;-1.90;99.90
20698;DHT22;10508;50.956;4.640;2023-03-01T05:03:48;-1.80;99.90
20698;DHT22;10508;50.956;4.640;2023-03-01T05:06:15;-1.90;99.90
20698;DHT22;10508;50.956;4.640;2023-03-01T05:08:42;-1.90;99.90
20698;DHT22;10508;50.956;4.640;2023-03-01T05:11:08;-1.90;99.90
20698;DHT22;10508;50.956;4.640;2023-03-01T05:13:36;-1.90;99.90
20698;DHT22;10508;50.956;4.640;2023-03-01T05:16:03;-1.90;99.90
20698;DHT22;10508;50.956;4.640;2023-03-01T05:18:31;-1.80;99.90
20698;DHT22;10508;50.956;4.640;2023-03-01T05:21:09;-1.80;99.90
20698;DHT22;10508;50.956;4.640;2023-03-01T05:23:34;-1.90;99.90
20698;DHT22;10508;50.956;4.640;2023-03-01T05:26:02;-1.90;99.90
20698;DHT22;10508;50.956;4.640;2023-03-01T05:28:29;-1.90;99.90
20698;DHT22;10508;50.956;4.640;2023-03-01T05:30:56;-2.00;99.90
20698;DHT22;10508;50.956;4.640;2023-03-01T05:33:41;-2.00;99.90
20698;DHT22;10508;50.956;4.640;2023-03-01T05:36:07;-1.80;99.90
20698;DHT22;10508;50.956;4.640;2023-03-01T05:38:35;-2.00;99.90
20698;DHT22;10508;50.956;4.640;2023-03-01T05:41:01;-2.00;99.90
20698;DHT22;10508;50.956;4.640;2023-03-01T05:43:30;-2.10;99.90
20698;DHT22;10508;50.956;4.640;2023-03-01T05:45:59;-2.00;99.90
20698;DHT22;10508;50.956;4.640;2023-03-01T05:48:25;-2.10;99.90
20698;DHT22;10508;50.956;4.640;2023-03-01T05:50:51;-2.20;99.90
20698;DHT22;10508;50.956;4.640;2023-03-01T05:53:19;-2.10;99.90
20698;DHT22;10508;50.956;4.640;2023-03-01T05:55:47;-2.00;99.90
20698;DHT22;10508;50.956;4.640;2023-03-01T05:58:18;-2.00;99.90
20698;DHT22;10508;50.956;4.640;2023-03-01T06:00:45;-2.00;99.90
20698;DHT22;10508;50.956;4.640;2023-03-01T06:03:12;-1.90;99.90
20698;DHT22;10508;50.956;4.640;2023-03-01T06:05:39;-1.80;99.90
20698;DHT22;10508;50.956;4.640;2023-03-01T06:08:05;-1.80;99.90
20698;DHT22;10508;50.956;4.640;2023-03-01T06:10:31;-1.90;99.90
20698;DHT22;10508;50.956;4.640;2023-03-01T06:12:57;-1.90;99.90
20698;DHT22;10508;50.956;4.640;2023-03-01T06:15:24;-2.10;99.90
20698;DHT22;10508;50.956;4.640;2023-03-01T06:17:51;-2.10;99.90
20698;DHT22;10508;50.956;4.640;2023-03-01T06:20:22;-2.10;99.90
20698;DHT22;10508;50.956;4.640;2023-03-01T06:22:48;-2.20;99.90
20698;DHT22;10508;50.956;4.640;2023-03-01T06:25:17;-2.10;99.90
20698;DHT22;10508;50.956;4.640;2023-03-01T06:27:43;-2.20;99.90
20698;DHT22;10508;50.956;4.640;2023-03-01T06:30:11;-2.10;99.90
20698;DHT22;10508;50.956;4.640;2023-03-01T06:32:38;-2.20;99.90
20698;DHT22;10508;50.956;4.640;2023-03-01T06:35:08;-2.10;99.90
20698;DHT22;10508;50.956;4.640;2023-03-01T06:37:34;-2.30;99.90
20698;DHT22;10508;50.956;4.640;2023-03-01T06:40:01;-2.30;99.90
20698;DHT22;10508;50.956;4.640;2023-03-01T06:42:32;-2.30;99.90
20698;DHT22;10508;50.956;4.640;2023-03-01T06:44:58;-2.20;99.90
20698;DHT22;10508;50.956;4.640;2023-03-01T06:47:24;-2.20;99.90
20698;DHT22;10508;50.956;4.640;2023-03-01T06:49:49;-2.20;99.90
20698;DHT22;10508;50.956;4.640;2023-03-01T06:52:15;-2.10;99.90
20698;DHT22;10508;50.956;4.640;2023-03-01T06:54:41;-2.10;99.90
20698;DHT22;10508;50.956;4.640;2023-03-01T06:57:06;-2.10;99.90
20698;DHT22;10508;50.956;4.640;2023-03-01T06:59:32;-1.90;99.90
20698;DHT22;10508;50.956;4.640;2023-03-01T07:01:58;-1.90;99.90
20698;DHT22;10508;50.956;4.640;2023-03-01T07:04:23;-1.80;99.90
20698;DHT22;10508;50.956;4.640;2023-03-01T07:06:49;-1.80;99.90
20698;DHT22;10508;50.956;4.640;2023-03-01T07:09:24;-1.80;99.90
20698;DHT22;10508;50.956;4.640;2023-03-01T07:11:50;-1.70;99.90
20698;DHT22;10508;50.956;4.640;2023-03-01T07:14:16;-1.50;99.90
20698;DHT22;10508;50.956;4.640;2023-03-01T07:16:41;-1.70;99.90
20698;DHT22;10508;50.956;4.640;2023-03-01T07:19:07;-1.60;99.90
20698;DHT22;10508;50.956;4.640;2023-03-01T07:21:32;-1.50;99.90
20698;DHT22;10508;50.956;4.640;2023-03-01T07:24:06;-1.50;99.90
20698;DHT22;10508;50.956;4.640;2023-03-01T07:26:32;-1.40;99.90
20698;DHT22;10508;50.956;4.640;2023-03-01T07:29:02;-1.30;99.90
20698;DHT22;10508;50.956;4.640;2023-03-01T07:31:28;-1.20;99.90
20698;DHT22;10508;50.956;4.640;2023-03-01T07:33:54;-1.10;99.90
20698;DHT22;10508;50.956;4.640;2023-03-01T07:36:20;-1.10;99.90
20698;DHT22;10508;50.956;4.640;2023-03-01T07:38:46;-1.00;99.90
20698;DHT22;10508;50.956;4.640;2023-03-01T07:41:12;-1.00;99.90
20698;DHT22;10508;50.956;4.640;2023-03-01T07:43:37;-0.90;99.90
20698;DHT22;10508;50.956;4.640;2023-03-01T07:46:04;-0.80;99.90
20698;DHT22;10508;50.956;4.640;2023-03-01T07:48:30;-0.80;99.90
20698;DHT22;10508;50.956;4.640;2023-03-01T07:51:04;-0.70;99.90
20698;DHT22;10508;50.956;4.640;2023-03-01T07:53:30;-0.60;99.90
20698;DHT22;10508;50.956;4.640;2023-03-01T07:56:11;-0.50;99.90
20698;DHT22;10508;50.956;4.640;2023-03-01T07:58:38;-0.40;99.90
20698;DHT22;10508;50.956;4.640;2023-03-01T08:01:09;-0.40;99.90
20698;DHT22;10508;50.956;4.640;2023-03-01T08:03:36;-0.30;99.90
20698;DHT22;10508;50.956;4.640;2023-03-01T08:06:04;-0.20;99.90
20698;DHT22;10508;50.956;4.640;2023-03-01T08:08:31;-0.10;99.90
20698;DHT22;10508;50.956;4.640;2023-03-01T08:10:57;0.00;99.90
20698;DHT22;10508;50.956;4.640;2023-03-01T08:13:23;0.20;99.90
20698;DHT22;10508;50.956;4.640;2023-03-01T08:15:49;0.20;99.90
20698;DHT22;10508;50.956;4.640;2023-03-01T08:18:16;0.30;99.90
20698;DHT22;10508;50.956;4.640;2023-03-01T08:20:42;0.50;99.90
20698;DHT22;10508;50.956;4.640;2023-03-01T08:23:08;0.60;99.90
20698;DHT22;10508;50.956;4.640;2023-03-01T08:25:34;0.60;99.90
20698;DHT22;10508;50.956;4.640;2023-03-01T08:28:00;0.70;99.90
20698;DHT22;10508;50.956;4.640;2023-03-01T08:30:25;0.80;99.90
20698;DHT22;10508;50.956;4.640;2023-03-01T08:32:51;0.90;99.90
20698;DHT22;10508;50.956;4.640;2023-03-01T08:35:18;1.10;99.90
20698;DHT22;10508;50.956;4.640;2023-03-01T08:37:44;1.20;99.90
20698;DHT22;10508;50.956;4.640;2023-03-01T08:40:10;1.30;99.90
20698;DHT22;10508;50.956;4.640;2023-03-01T08:42:36;1.50;99.90
20698;DHT22;10508;50.956;4.640;2023-03-01T08:45:03;1.50;99.90
20698;DHT22;10508;50.956;4.640;2023-03-01T08:47:29;1.70;99.90
20698;DHT22;10508;50.956;4.640;2023-03-01T08:49:55;2.00;99.90
20698;DHT22;10508;50.956;4.640;2023-03-01T08:52:21;2.10;99.90
20698;DHT22;10508;50.956;4.640;2023-03-01T08:54:49;2.20;99.90
20698;DHT22;10508;50.956;4.640;2023-03-01T08:57:15;2.40;99.90
20698;DHT22;10508;50.956;4.640;2023-03-01T08:59:40;2.50;99.90
20698;DHT22;10508;50.956;4.640;2023-03-01T09:02:12;2.80;99.90
20698;DHT22;10508;50.956;4.640;2023-03-01T09:04:39;3.00;99.70
20698;DHT22;10508;50.956;4.640;2023-03-01T09:07:05;3.10;99.50
20698;DHT22;10508;50.956;4.640;2023-03-01T09:09:31;3.30;98.40
20698;DHT22;10508;50.956;4.640;2023-03-01T09:11:56;3.40;98.30
20698;DHT22;10508;50.956;4.640;2023-03-01T09:14:22;3.60;97.90
20698;DHT22;10508;50.956;4.640;2023-03-01T09:16:48;3.70;97.10
20698;DHT22;10508;50.956;4.640;2023-03-01T09:19:14;3.90;97.30
20698;DHT22;10508;50.956;4.640;2023-03-01T09:21:40;4.00;96.20
20698;DHT22;10508;50.956;4.640;2023-03-01T09:24:13;4.20;96.40
20698;DHT22;10508;50.956;4.640;2023-03-01T09:26:39;4.40;96.00
20698;DHT22;10508;50.956;4.640;2023-03-01T09:29:04;4.50;95.40
20698;DHT22;10508;50.956;4.640;2023-03-01T09:31:30;4.80;95.10
20698;DHT22;10508;50.956;4.640;2023-03-01T09:33:55;4.90;94.90
20698;DHT22;10508;50.956;4.640;2023-03-01T09:36:23;5.10;94.20
20698;DHT22;10508;50.956;4.640;2023-03-01T09:38:50;5.10;94.10
20698;DHT22;10508;50.956;4.640;2023-03-01T09:46:20;5.20;92.80
20698;DHT22;10508;50.956;4.640;2023-03-01T09:49:12;5.40;92.80
20698;DHT22;10508;50.956;4.640;2023-03-01T09:51:36;5.60;93.10
20698;DHT22;10508;50.956;4.640;2023-03-01T09:54:03;6.20;92.70
20698;DHT22;10508;50.956;4.640;2023-03-01T10:09:32;8.40;86.60
20698;DHT22;10508;50.956;4.640;2023-03-01T10:12:00;8.90;86.70
20698;DHT22;10508;50.956;4.640;2023-03-01T10:14:32;9.60;83.40
20698;DHT22;10508;50.956;4.640;2023-03-01T10:17:07;10.50;80.50
20698;DHT22;10508;50.956;4.640;2023-03-01T10:19:40;11.00;79.30
20698;DHT22;10508;50.956;4.640;2023-03-01T10:22:22;12.10;73.20
20698;DHT22;10508;50.956;4.640;2023-03-01T10:24:51;12.60;71.90
20698;DHT22;10508;50.956;4.640;2023-03-01T10:27:19;13.60;67.60
20698;DHT22;10508;50.956;4.640;2023-03-01T10:32:15;13.20;65.90
20698;DHT22;10508;50.956;4.640;2023-03-01T10:34:41;13.50;66.30
20698;DHT22;10508;50.956;4.640;2023-03-01T10:37:13;13.20;64.60
20698;DHT22;10508;50.956;4.640;2023-03-01T10:40:02;12.90;63.60
20698;DHT22;10508;50.956;4.640;2023-03-01T10:42:45;13.80;64.70
20698;DHT22;10508;50.956;4.640;2023-03-01T10:48:18;14.30;61.50
20698;DHT22;10508;50.956;4.640;2023-03-01T10:50:51;14.20;60.00
20698;DHT22;10508;50.956;4.640;2023-03-01T10:53:43;14.20;60.60
20698;DHT22;10508;50.956;4.640;2023-03-01T10:56:14;14.30;60.20
20698;DHT22;10508;50.956;4.640;2023-03-01T10:59:03;13.90;59.90
20698;DHT22;10508;50.956;4.640;2023-03-01T11:01:34;14.30;61.70
20698;DHT22;10508;50.956;4.640;2023-03-01T11:06:35;15.20;60.80
20698;DHT22;10508;50.956;4.640;2023-03-01T11:09:24;14.20;58.00
20698;DHT22;10508;50.956;4.640;2023-03-01T11:11:57;14.50;59.00
20698;DHT22;10508;50.956;4.640;2023-03-01T11:14:25;15.00;60.20
20698;DHT22;10508;50.956;4.640;2023-03-01T11:17:12;15.10;57.50
20698;DHT22;10508;50.956;4.640;2023-03-01T11:19:39;15.40;58.30
20698;DHT22;10508;50.956;4.640;2023-03-01T11:22:14;15.70;57.00
20698;DHT22;10508;50.956;4.640;2023-03-01T11:24:46;16.00;58.70
20698;DHT22;10508;50.956;4.640;2023-03-01T11:27:38;16.70;57.10
20698;DHT22;10508;50.956;4.640;2023-03-01T11:30:18;16.80;57.20
20698;DHT22;10508;50.956;4.640;2023-03-01T11:33:05;17.20;55.70
20698;DHT22;10508;50.956;4.640;2023-03-01T11:35:40;17.00;55.30
20698;DHT22;10508;50.956;4.640;2023-03-01T11:40:57;15.80;54.50
20698;DHT22;10508;50.956;4.640;2023-03-01T11:43:38;15.80;54.80
20698;DHT22;10508;50.956;4.640;2023-03-01T12:02:54;13.10;58.10
20698;DHT22;10508;50.956;4.640;2023-03-01T12:05:55;12.20;60.30
20698;DHT22;10508;50.956;4.640;2023-03-01T12:08:38;12.10;61.60
20698;DHT22;10508;50.956;4.640;2023-03-01T12:29:50;11.90;60.90
20698;DHT22;10508;50.956;4.640;2023-03-01T12:32:33;12.10;60.80
20698;DHT22;10508;50.956;4.640;2023-03-01T12:40:51;11.90;62.40
20698;DHT22;10508;50.956;4.640;2023-03-01T12:46:21;12.60;61.50
20698;DHT22;10508;50.956;4.640;2023-03-01T12:51:26;12.90;59.90
20698;DHT22;10508;50.956;4.640;2023-03-01T12:53:55;12.60;59.20
20698;DHT22;10508;50.956;4.640;2023-03-01T12:56:29;12.30;61.60
20698;DHT22;10508;50.956;4.640;2023-03-01T12:59:16;12.40;61.00
20698;DHT22;10508;50.956;4.640;2023-03-01T13:07:11;12.20;59.50
20698;DHT22;10508;50.956;4.640;2023-03-01T13:12:49;12.40;62.70
20698;DHT22;10508;50.956;4.640;2023-03-01T13:17:49;12.90;59.20
20698;DHT22;10508;50.956;4.640;2023-03-01T13:20:17;12.70;60.10
20698;DHT22;10508;50.956;4.640;2023-03-01T13:22:45;13.00;60.40
20698;DHT22;10508;50.956;4.640;2023-03-01T13:25:18;12.70;59.80
20698;DHT22;10508;50.956;4.640;2023-03-01T13:27:45;12.20;60.60
20698;DHT22;10508;50.956;4.640;2023-03-01T13:35:49;12.10;62.90
20698;DHT22;10508;50.956;4.640;2023-03-01T13:41:03;11.60;62.30
20698;DHT22;10508;50.956;4.640;2023-03-01T13:43:36;11.80;63.10
20698;DHT22;10508;50.956;4.640;2023-03-01T13:48:45;11.60;61.70
20698;DHT22;10508;50.956;4.640;2023-03-01T13:51:13;11.30;61.00
20698;DHT22;10508;50.956;4.640;2023-03-01T13:53:43;11.20;61.00
20698;DHT22;10508;50.956;4.640;2023-03-01T13:56:20;11.40;61.40
20698;DHT22;10508;50.956;4.640;2023-03-01T14:01:32;11.90;61.80
20698;DHT22;10508;50.956;4.640;2023-03-01T14:03:58;12.10;61.80
20698;DHT22;10508;50.956;4.640;2023-03-01T14:06:27;12.10;60.40
20698;DHT22;10508;50.956;4.640;2023-03-01T14:14:30;10.60;62.90
20698;DHT22;10508;50.956;4.640;2023-03-01T14:19:35;10.10;63.10
20698;DHT22;10508;50.956;4.640;2023-03-01T14:22:20;10.10;64.00
20698;DHT22;10508;50.956;4.640;2023-03-01T14:25:16;10.20;65.20
20698;DHT22;10508;50.956;4.640;2023-03-01T14:27:39;10.20;64.40
20698;DHT22;10508;50.956;4.640;2023-03-01T14:32:38;10.00;63.70
20698;DHT22;10508;50.956;4.640;2023-03-01T14:35:23;9.60;64.50
20698;DHT22;10508;50.956;4.640;2023-03-01T14:37:49;9.60;65.10
20698;DHT22;10508;50.956;4.640;2023-03-01T14:40:41;9.60;67.20
20698;DHT22;10508;50.956;4.640;2023-03-01T14:43:13;9.50;66.10
20698;DHT22;10508;50.956;4.640;2023-03-01T14:45:47;9.40;66.80
20698;DHT22;10508;50.956;4.640;2023-03-01T14:48:13;9.40;66.80
20698;DHT22;10508;50.956;4.640;2023-03-01T14:50:43;9.40;67.00
20698;DHT22;10508;50.956;4.640;2023-03-01T14:55:46;9.40;67.10
20698;DHT22;10508;50.956;4.640;2023-03-01T14:58:15;9.60;65.50
20698;DHT22;10508;50.956;4.640;2023-03-01T15:00:57;9.30;66.70
20698;DHT22;10508;50.956;4.640;2023-03-01T15:03:27;9.20;67.30
20698;DHT22;10508;50.956;4.640;2023-03-01T15:05:56;9.30;66.50
20698;DHT22;10508;50.956;4.640;2023-03-01T15:08:27;9.00;66.60
20698;DHT22;10508;50.956;4.640;2023-03-01T15:11:16;9.00;67.70
20698;DHT22;10508;50.956;4.640;2023-03-01T15:13:43;9.10;68.00
20698;DHT22;10508;50.956;4.640;2023-03-01T15:16:26;9.20;66.50
20698;DHT22;10508;50.956;4.640;2023-03-01T15:18:56;9.20;67.40
20698;DHT22;10508;50.956;4.640;2023-03-01T15:21:24;9.00;67.70
20698;DHT22;10508;50.956;4.640;2023-03-01T15:23:56;8.80;67.90
20698;DHT22;10508;50.956;4.640;2023-03-01T15:26:34;8.80;67.20
20698;DHT22;10508;50.956;4.640;2023-03-01T15:29:01;8.70;67.00
20698;DHT22;10508;50.956;4.640;2023-03-01T15:31:33;8.50;67.20
20698;DHT22;10508;50.956;4.640;2023-03-01T15:34:29;8.50;66.60
20698;DHT22;10508;50.956;4.640;2023-03-01T15:36:58;8.50;67.20
20698;DHT22;10508;50.956;4.640;2023-03-01T15:39:41;8.70;66.80
20698;DHT22;10508;50.956;4.640;2023-03-01T15:45:22;8.80;68.50
20698;DHT22;10508;50.956;4.640;2023-03-01T15:48:05;8.80;67.30
20698;DHT22;10508;50.956;4.640;2023-03-01T15:50:40;8.90;67.90
20698;DHT22;10508;50.956;4.640;2023-03-01T15:53:10;8.80;66.10
20698;DHT22;10508;50.956;4.640;2023-03-01T15:55:36;8.80;66.40
20698;DHT22;10508;50.956;4.640;2023-03-01T15:58:20;8.60;68.40
20698;DHT22;10508;50.956;4.640;2023-03-01T16:00:47;8.50;67.70
20698;DHT22;10508;50.956;4.640;2023-03-01T16:03:14;8.50;69.80
20698;DHT22;10508;50.956;4.640;2023-03-01T16:05:42;8.50;68.80
20698;DHT22;10508;50.956;4.640;2023-03-01T16:08:08;8.50;68.70
20698;DHT22;10508;50.956;4.640;2023-03-01T16:10:40;8.40;67.90
20698;DHT22;10508;50.956;4.640;2023-03-01T16:13:07;8.40;68.70
20698;DHT22;10508;50.956;4.640;2023-03-01T16:15:34;8.50;68.80
20698;DHT22;10508;50.956;4.640;2023-03-01T16:18:04;8.40;68.50
20698;DHT22;10508;50.956;4.640;2023-03-01T16:20:31;8.30;68.60
20698;DHT22;10508;50.956;4.640;2023-03-01T16:22:58;8.40;68.90
20698;DHT22;10508;50.956;4.640;2023-03-01T16:25:25;8.40;68.80
20698;DHT22;10508;50.956;4.640;2023-03-01T16:27:51;8.40;70.20
20698;DHT22;10508;50.956;4.640;2023-03-01T16:30:20;8.30;69.60
20698;DHT22;10508;50.956;4.640;2023-03-01T16:32:47;8.10;70.20
20698;DHT22;10508;50.956;4.640;2023-03-01T16:35:16;8.20;70.90
20698;DHT22;10508;50.956;4.640;2023-03-01T16:37:42;8.10;70.10
20698;DHT22;10508;50.956;4.640;2023-03-01T16:40:18;8.00;70.70
20698;DHT22;10508;50.956;4.640;2023-03-01T16:42:44;7.90;71.50
20698;DHT22;10508;50.956;4.640;2023-03-01T16:45:10;7.80;70.80
20698;DHT22;10508;50.956;4.640;2023-03-01T16:47:36;7.90;71.60
20698;DHT22;10508;50.956;4.640;2023-03-01T16:50:02;7.90;71.10
20698;DHT22;10508;50.956;4.640;2023-03-01T16:52:28;7.70;72.00
20698;DHT22;10508;50.956;4.640;2023-03-01T16:54:53;7.70;72.90
20698;DHT22;10508;50.956;4.640;2023-03-01T16:57:19;7.60;70.90
20698;DHT22;10508;50.956;4.640;2023-03-01T16:59:45;7.60;71.70
20698;DHT22;10508;50.956;4.640;2023-03-01T17:02:12;7.50;72.10
20698;DHT22;10508;50.956;4.640;2023-03-01T17:04:41;7.60;72.40
20698;DHT22;10508;50.956;4.640;2023-03-01T17:07:07;7.50;72.80
20698;DHT22;10508;50.956;4.640;2023-03-01T17:09:37;7.40;72.30
20698;DHT22;10508;50.956;4.640;2023-03-01T17:12:05;7.40;72.50
20698;DHT22;10508;50.956;4.640;2023-03-01T17:14:31;7.30;73.30
20698;DHT22;10508;50.956;4.640;2023-03-01T17:16:57;7.30;73.00
20698;DHT22;10508;50.956;4.640;2023-03-01T17:19:23;7.30;73.30
20698;DHT22;10508;50.956;4.640;2023-03-01T17:21:48;7.10;74.10
20698;DHT22;10508;50.956;4.640;2023-03-01T17:24:14;7.20;74.00
20698;DHT22;10508;50.956;4.640;2023-03-01T17:26:40;7.10;73.50
20698;DHT22;10508;50.956;4.640;2023-03-01T17:29:06;7.10;73.70
20698;DHT22;10508;50.956;4.640;2023-03-01T17:31:32;7.10;74.40
20698;DHT22;10508;50.956;4.640;2023-03-01T17:33:58;7.00;73.40
20698;DHT22;10508;50.956;4.640;2023-03-01T17:36:24;6.80;73.60
20698;DHT22;10508;50.956;4.640;2023-03-01T17:38:51;6.80;74.40
20698;DHT22;10508;50.956;4.640;2023-03-01T17:41:17;6.70;74.30
20698;DHT22;10508;50.956;4.640;2023-03-01T17:43:46;6.60;74.60
20698;DHT22;10508;50.956;4.640;2023-03-01T17:46:12;6.70;75.00
20698;DHT22;10508;50.956;4.640;2023-03-01T17:48:38;6.60;75.50
20698;DHT22;10508;50.956;4.640;2023-03-01T17:51:08;6.60;75.00
20698;DHT22;10508;50.956;4.640;2023-03-01T17:53:36;6.50;75.00
20698;DHT22;10508;50.956;4.640;2023-03-01T17:56:04;6.50;75.90
20698;DHT22;10508;50.956;4.640;2023-03-01T17:58:31;6.50;75.10
20698;DHT22;10508;50.956;4.640;2023-03-01T18:01:13;6.40;75.00
20698;DHT22;10508;50.956;4.640;2023-03-01T18:03:40;6.40;75.50